Grant Grove, CA

11:19 PM PDT on October 25, 2014 (GMT -0700)
Sierra Remote Observatories | Change Station
CLOSE
Current Station
Personal Weather Station
Location: Auberry, CA
Elevation: 4590 ft
Nearby Weather Stations

Elev 4590 ft 37.07 °N, 119.41 °W | Updated 19 minutes ago

Clear
Clear
47.9 °F
Feels Like 48 °F
N
0.0
Wind Variable Wind from SSE
Gusts 10.0 mph

Today
High -- | Low -- °F
--% Chance of Precip.
Yesterday
High -- | Low -- °F
Precip. -- in
7:13 AM 6:06 PM
Waxing Crescent, 6% visible
Pressure 29.88 in
Visibility 10.0 miles
Clouds Clear
Windchill 48 °F
Dew Point 42 °F
Humidity 79%
Rainfall 0.00 in
Snow Depth Not available.
UV 0 out of 12
Pollen 2.00 out of 12
Air Quality Not available.
Flu Activity Sporadic
METAR KBIH 260556Z AUTO 27005KT 10SM CLR 11/M09 A2998 RMK AO2 SLP117 T01111094 10256 20111 51010

More Conditions Fewer Conditions

Pressure 29.88 in
Visibility 10.0 miles
Clouds Clear
Windchill 48 °F
Dew Point 42 °F
Humidity 79%
Rainfall 0.00 in
Snow Depth Not available.
UV 0 out of 12
Pollen 2.00 out of 12
Air Quality Not available.
Flu Activity Sporadic
METAR KBIH 260556Z AUTO 27005KT 10SM CLR 11/M09 A2998 RMK AO2 SLP117 T01111094 10256 20111 51010

More Conditions Fewer Conditions

10-Day Weather Forecast

Almanac

Astronomy

Oct. 25, 2014 Rise Set
Actual Time 7:13 AM PDT 6:06 PM PDT
Civil Twilight 6:46 AM PDT 6:33 PM PDT
Nautical Twilight 6:16 AM PDT 7:03 PM PDT
Astronomical Twilight 5:46 AM PDT 7:33 PM PDT
Moon 8:55 AM PDT (10/25) 7:35 PM PDT (10/25)
Length of Visible Light 11h 46m
Length of Day
10h 53m
Tomorrow will be 2m 10s shorter.
Waxing Crescent, 6% of the Moon is Illuminated
Oct 26
Waxing Crescent
Oct 30
First Quarter
Nov 6
Full
Nov 14
Last Quarter
Nov 22
New

Community

WunderPhotos

Upload Photos

1,765,113 photos uploaded!

Nearby

Snow Depth

Station Depth Elevation
Virginia Lakes Ridge 0 in 9200 ft
Leavitt Lake 1 in 9400 ft
Leavitt Meadows 1 in 7200 ft
Sonora Pass 1 in 8800 ft
Poison Flat 0 in 7900 ft

Earthquake Activity

City Distance Mag. Time & Date
Lone Pine, California 76 miles 3.6 7:31 AM PDT
2014-10-25
Coalinga, California 105 miles 2.5 11:01 PM PDT
2014-10-24
Minimum magnitude displayed is 2.5.

Coastal Water Temperatures

Place Temperature
No Stations Reporting

Nearby Weather Stations